Time;durP1;ratioP1;P1;durP2;ratioP2;P2;SDS_P1;SDS_P2;PMS_P1;PMS_P2;Temp;Humidity;BMP_temperature;BMP_pressure;BME280_temperature;BME280_humidity;BME280_pressure;Samples;Min_cycle;Max_cycle;Signal;HPM_P1;HPM_P2
2023/09/17 00:00:30;;;;;;;;;;;;;;;19.59;100.00;96349.50;5167734;27;19955;-79
2023/09/17 00:02:56;;;;;;;;;;;;;;;19.55;100.00;96339.66;5148842;27;19982;-79
2023/09/17 00:05:22;;;;;;;;;;;;;;;19.47;100.00;96341.88;5166988;27;19954;-79
2023/09/17 00:07:48;;;;;;;;;;;;;;;19.42;100.00;96347.22;5148675;27;19965;-80
2023/09/17 00:10:14;;;;;;;;;;;;;;;19.37;100.00;96349.91;5166882;27;19973;-79
2023/09/17 00:12:40;;;;;;;;;;;;;;;19.31;100.00;96343.03;5167315;27;19961;-71
2023/09/17 00:15:06;;;;;;;;;;;;;;;19.29;100.00;96349.72;5167586;27;19955;-80
2023/09/17 00:17:32;;;;;;;;;;;;;;;19.26;100.00;96354.50;5131851;27;19964;-80
2023/09/17 00:19:58;;;;;;;;;;;;;;;19.23;100.00;96359.56;5148450;27;20179;-80
2023/09/17 00:22:24;;;;;;;;;;;;;;;19.20;100.00;96355.59;5131624;27;19966;-80
2023/09/17 00:24:50;;;;;;;;;;;;;;;19.16;100.00;96354.56;5148379;27;20023;-81
2023/09/17 00:27:16;;;;;;;;;;;;;;;19.17;100.00;96358.00;5167153;27;19960;-80
2023/09/17 00:29:42;;;;;;;;;;;;;;;19.15;100.00;96360.16;5148581;27;19963;-80
2023/09/17 00:32:08;;;;;;;;;;;;;;;19.13;100.00;96355.13;5148365;27;20001;-79
2023/09/17 00:34:33;;;;;;;;;;;;;;;19.10;100.00;96358.31;5166567;27;20023;-76
2023/09/17 00:37:00;;;;;;;;;;;;;;;19.07;100.00;96348.25;5166977;27;20231;-76
2023/09/17 00:39:27;;;;;;;;;;;;;;;19.04;100.00;96349.56;5166439;27;19946;-76
2023/09/17 00:41:53;;;;;;;;;;;;;;;19.00;100.00;96351.22;5166643;27;19958;-76
2023/09/17 00:44:19;;;;;;;;;;;;;;;18.97;100.00;96346.44;5166537;27;20153;-76
2023/09/17 00:46:44;;;;;;;;;;;;;;;18.95;100.00;96355.75;5167037;27;20010;-75
2023/09/17 00:49:13;;;;;;;;;;;;;;;18.92;100.00;96359.75;5166800;27;19948;-72
2023/09/17 00:51:40;;;;;;;;;;;;;;;18.91;100.00;96354.69;5166396;27;19964;-69
2023/09/17 00:54:06;;;;;;;;;;;;;;;18.88;100.00;96355.22;5166749;27;19955;-69
2023/09/17 00:56:32;;;;;;;;;;;;;;;18.84;100.00;96353.13;5166502;27;19955;-69
2023/09/17 00:58:59;;;;;;;;;;;;;;;18.81;100.00;96364.28;5166502;27;19957;-69
2023/09/17 01:01:25;;;;;;;;;;;;;;;18.80;100.00;96370.69;5166706;27;20241;-69
2023/09/17 01:03:51;;;;;;;;;;;;;;;18.78;100.00;96362.19;5147631;27;19961;-69
2023/09/17 01:06:17;;;;;;;;;;;;;;;18.76;100.00;96356.31;5166553;27;19955;-71
2023/09/17 01:08:43;;;;;;;;;;;;;;;18.74;100.00;96358.47;5166834;27;19996;-72
2023/09/17 01:11:09;;;;;;;;;;;;;;;18.73;100.00;96358.72;5166098;27;19962;-80
2023/09/17 01:13:51;;;;;;;;;;;;;;;18.71;100.00;96348.38;5148076;27;19961;-80
2023/09/17 01:16:17;;;;;;;;;;;;;;;18.71;100.00;96361.66;5166553;27;19961;-80
2023/09/17 01:18:43;;;;;;;;;;;;;;;18.71;100.00;96364.31;5166249;27;19955;-80
2023/09/17 01:21:24;;;;;;;;;;;;;;;18.70;100.00;96364.59;5166247;27;19962;-80
2023/09/17 01:23:50;;;;;;;;;;;;;;;18.69;100.00;96371.78;5166018;27;20168;-81
2023/09/17 01:26:16;;;;;;;;;;;;;;;18.69;100.00;96370.94;5166354;27;19957;-79
2023/09/17 01:28:43;;;;;;;;;;;;;;;18.69;100.00;96360.31;5166539;27;19953;-81
2023/09/17 01:31:09;;;;;;;;;;;;;;;18.67;100.00;96356.09;5147440;27;19967;-79
2023/09/17 01:33:35;;;;;;;;;;;;;;;18.67;100.00;96363.28;5165772;27;19981;-80
2023/09/17 01:36:14;;;;;;;;;;;;;;;18.64;100.00;96358.50;5165794;27;19960;-80
2023/09/17 01:38:45;;;;;;;;;;;;;;;18.61;100.00;96356.41;5166503;27;19957;-80
2023/09/17 01:41:11;;;;;;;;;;;;;;;18.57;100.00;96358.78;5165971;27;19959;-80
2023/09/17 01:43:40;;;;;;;;;;;;;;;18.53;100.00;96356.94;5166022;27;20015;-76
2023/09/17 01:46:06;;;;;;;;;;;;;;;18.49;100.00;96355.91;5166040;27;19958;-71
2023/09/17 01:48:32;;;;;;;;;;;;;;;18.46;100.00;96350.06;5166149;27;20161;-71
2023/09/17 01:50:59;;;;;;;;;;;;;;;18.45;100.00;96359.06;5166280;27;19958;-72
2023/09/17 01:53:25;;;;;;;;;;;;;;;18.43;100.00;96355.09;5165508;27;19970;-72
2023/09/17 01:55:52;;;;;;;;;;;;;;;18.42;100.00;96367.59;5167382;27;20197;-71
2023/09/17 01:58:19;;;;;;;;;;;;;;;18.41;100.00;96365.19;5170064;27;19960;-72
2023/09/17 02:00:44;;;;;;;;;;;;;;;18.39;100.00;96354.06;5170024;27;19950;-72
2023/09/17 02:03:10;;;;;;;;;;;;;;;18.38;100.00;96353.28;5151168;27;19970;-80
2023/09/17 02:05:36;;;;;;;;;;;;;;;18.36;100.00;96354.59;5169765;27;19963;-72
2023/09/17 02:08:02;;;;;;;;;;;;;;;18.36;100.00;96354.59;5169501;27;20000;-72
2023/09/17 02:10:28;;;;;;;;;;;;;;;18.34;100.00;96364.69;5169852;27;20116;-71
2023/09/17 02:12:54;;;;;;;;;;;;;;;18.31;100.00;96362.56;5169112;27;19969;-72
2023/09/17 02:15:20;;;;;;;;;;;;;;;18.31;100.00;96367.88;5169560;27;19960;-72
2023/09/17 02:17:45;;;;;;;;;;;;;;;18.28;100.00;96369.22;5169600;27;19991;-71
2023/09/17 02:20:11;;;;;;;;;;;;;;;18.25;100.00;96367.91;5169707;27;20209;-79
2023/09/17 02:22:38;;;;;;;;;;;;;;;18.23;100.00;96361.28;5150822;27;19968;-72
2023/09/17 02:25:05;;;;;;;;;;;;;;;18.18;100.00;96363.94;5169460;27;20131;-79
2023/09/17 02:27:32;;;;;;;;;;;;;;;18.14;100.00;96366.34;5169228;27;20130;-80
2023/09/17 02:29:57;;;;;;;;;;;;;;;18.09;100.00;96368.97;5169648;27;19961;-79
2023/09/17 02:32:23;;;;;;;;;;;;;;;18.07;100.00;96371.09;5169539;27;19977;-79
2023/09/17 02:34:49;;;;;;;;;;;;;;;18.05;100.00;96381.19;5168861;27;19959;-80
2023/09/17 02:37:15;;;;;;;;;;;;;;;18.03;100.00;96380.66;5150268;27;19959;-79
2023/09/17 02:39:41;;;;;;;;;;;;;;;18.02;100.00;96384.41;5169013;27;19955;-72
2023/09/17 02:42:07;;;;;;;;;;;;;;;18.00;100.00;96381.22;5168835;27;19962;-69
2023/09/17 02:44:33;;;;;;;;;;;;;;;17.98;100.00;96383.34;5169001;27;20017;-69
2023/09/17 02:46:58;;;;;;;;;;;;;;;17.95;100.00;96395.25;5168944;27;19959;-69
2023/09/17 02:49:24;;;;;;;;;;;;;;;17.92;100.00;96393.16;5169033;27;19987;-70
2023/09/17 02:51:50;;;;;;;;;;;;;;;17.86;100.00;96383.59;5168990;27;20280;-70
2023/09/17 02:54:16;;;;;;;;;;;;;;;17.83;100.00;96382.28;5168986;27;19951;-69
2023/09/17 02:56:42;;;;;;;;;;;;;;;17.79;100.00;96380.41;5168871;27;19960;-70
2023/09/17 02:59:08;;;;;;;;;;;;;;;17.76;100.00;96379.03;5168397;27;19940;-79
2023/09/17 03:01:35;;;;;;;;;;;;;;;17.75;100.00;96377.47;5168738;27;20153;-72
2023/09/17 03:04:04;;;;;;;;;;;;;;;17.75;100.00;96381.97;5168769;27;19955;-72
2023/09/17 03:06:30;;;;;;;;;;;;;;;17.73;100.00;96384.09;5168166;27;20221;-72
2023/09/17 03:08:56;;;;;;;;;;;;;;;17.71;100.00;96394.19;5168367;27;19953;-73
2023/09/17 03:11:23;;;;;;;;;;;;;;;17.67;100.00;96377.19;5168395;27;20178;-72
2023/09/17 03:13:49;;;;;;;;;;;;;;;17.67;100.00;96377.19;5168345;27;20135;-72
2023/09/17 03:16:16;;;;;;;;;;;;;;;17.63;100.00;96375.06;5168493;27;19965;-75
2023/09/17 03:18:45;;;;;;;;;;;;;;;17.63;100.00;96376.94;5168477;27;19951;-69
2023/09/17 03:21:11;;;;;;;;;;;;;;;17.60;100.00;96385.44;5168592;27;19979;-69
2023/09/17 03:23:37;;;;;;;;;;;;;;;17.60;100.00;96385.44;5168398;27;20123;-70
2023/09/17 03:26:03;;;;;;;;;;;;;;;17.58;100.00;96376.94;5168538;27;19959;-69
2023/09/17 03:28:32;;;;;;;;;;;;;;;17.56;100.00;96377.19;5168505;27;19961;-70
2023/09/17 03:30:58;;;;;;;;;;;;;;;17.55;100.00;96375.59;5168097;27;20006;-69
2023/09/17 03:33:25;;;;;;;;;;;;;;;17.54;100.00;96376.66;5168108;27;19968;-69
2023/09/17 03:35:51;;;;;;;;;;;;;;;17.53;100.00;96375.06;5167807;27;19954;-72
2023/09/17 03:38:17;;;;;;;;;;;;;;;17.52;100.00;96375.34;5167848;27;20284;-69
2023/09/17 03:40:43;;;;;;;;;;;;;;;17.51;100.00;96374.53;5167778;27;20011;-69
2023/09/17 03:43:09;;;;;;;;;;;;;;;17.49;100.00;96375.84;5167955;27;19958;-70
2023/09/17 03:45:35;;;;;;;;;;;;;;;17.48;100.00;96382.22;5167798;27;19948;-69
2023/09/17 03:48:01;;;;;;;;;;;;;;;17.47;100.00;96378.78;5167874;27;19960;-70
2023/09/17 03:50:27;;;;;;;;;;;;;;;17.47;100.00;96376.13;5167953;27;20285;-69
2023/09/17 03:52:54;;;;;;;;;;;;;;;17.45;100.00;96371.09;5167660;27;19963;-80
2023/09/17 03:55:21;;;;;;;;;;;;;;;17.45;100.00;96376.38;5167815;27;19938;-80
2023/09/17 03:57:46;;;;;;;;;;;;;;;17.44;100.00;96377.44;5149248;27;20278;-80
2023/09/17 04:00:14;;;;;;;;;;;;;;;17.44;100.00;96368.69;5167041;27;19951;-80
2023/09/17 04:02:41;;;;;;;;;;;;;;;17.42;100.00;96368.94;5167784;27;19951;-80
2023/09/17 04:05:12;;;;;;;;;;;;;;;17.40;100.00;96368.41;5167222;27;19955;-80
2023/09/17 04:07:40;;;;;;;;;;;;;;;17.39;100.00;96380.09;5167676;27;20249;-80
2023/09/17 04:10:06;;;;;;;;;;;;;;;17.36;100.00;96375.28;5167249;27;20135;-80
2023/09/17 04:12:33;;;;;;;;;;;;;;;17.34;100.00;96371.31;5167320;27;19991;-69
2023/09/17 04:14:59;;;;;;;;;;;;;;;17.33;100.00;96380.34;5167470;27;20007;-72
2023/09/17 04:17:25;;;;;;;;;;;;;;;17.31;100.00;96379.81;5167562;27;20124;-72
2023/09/17 04:19:51;;;;;;;;;;;;;;;17.28;100.00;96373.16;5166703;27;19953;-72
2023/09/17 04:22:17;;;;;;;;;;;;;;;17.25;100.00;96374.47;5167271;27;19947;-72
2023/09/17 04:24:43;;;;;;;;;;;;;;;17.23;100.00;96378.47;5167173;27;19951;-72
2023/09/17 04:27:09;;;;;;;;;;;;;;;17.20;100.00;96376.34;5166826;27;20243;-71
2023/09/17 04:29:36;;;;;;;;;;;;;;;17.17;100.00;96372.34;5166734;27;19953;-70
2023/09/17 04:32:02;;;;;;;;;;;;;;;17.15;100.00;96377.09;5166661;27;19956;-79
2023/09/17 04:34:28;;;;;;;;;;;;;;;17.13;100.00;96381.88;5131449;27;20040;-79
2023/09/17 04:36:53;;;;;;;;;;;;;;;17.13;100.00;96386.38;5167124;27;20267;-80
2023/09/17 04:39:19;;;;;;;;;;;;;;;17.12;100.00;96382.94;5148342;27;19998;-79
2023/09/17 04:41:45;;;;;;;;;;;;;;;17.13;100.00;96381.06;5148029;27;19959;-79
2023/09/17 04:44:11;;;;;;;;;;;;;;;17.13;100.00;96389.03;5166778;27;19959;-80
2023/09/17 04:46:40;;;;;;;;;;;;;;;17.15;100.00;96395.66;5166927;27;20129;-79
2023/09/17 04:49:06;;;;;;;;;;;;;;;17.16;100.00;96397.25;5166823;27;19962;-79
2023/09/17 04:51:33;;;;;;;;;;;;;;;17.18;100.00;96399.66;5166290;27;19938;-80
2023/09/17 04:53:59;;;;;;;;;;;;;;;17.20;100.00;96408.16;5166831;27;19966;-79
2023/09/17 04:56:25;;;;;;;;;;;;;;;17.20;100.00;96410.78;5147969;27;19956;-79
2023/09/17 04:58:51;;;;;;;;;;;;;;;17.23;100.00;96410.25;5166300;27;20039;-79
2023/09/17 05:01:17;;;;;;;;;;;;;;;17.23;100.00;96408.41;5166457;27;20290;-79
2023/09/17 05:03:43;;;;;;;;;;;;;;;17.24;100.00;96412.66;5166682;27;20031;-79
2023/09/17 05:06:08;;;;;;;;;;;;;;;17.23;100.00;96403.09;5166310;27;20238;-71
2023/09/17 05:08:34;;;;;;;;;;;;;;;17.24;100.00;96399.41;5166424;27;19954;-78
2023/09/17 05:11:00;;;;;;;;;;;;;;;17.26;100.00;96412.41;5166438;27;19952;-75
2023/09/17 05:13:26;;;;;;;;;;;;;;;17.24;100.00;96404.72;5166645;27;20030;-75
2023/09/17 05:15:52;;;;;;;;;;;;;;;17.24;100.00;96409.22;5166473;27;19962;-76
2023/09/17 05:18:18;;;;;;;;;;;;;;;17.24;100.00;96409.22;5166554;27;19955;-75
2023/09/17 05:20:44;;;;;;;;;;;;;;;17.25;100.00;96414.25;5165916;27;20148;-75
2023/09/17 05:23:11;;;;;;;;;;;;;;;17.27;100.00;96418.50;5166443;27;19940;-75
2023/09/17 05:25:37;;;;;;;;;;;;;;;17.28;100.00;96417.44;5166516;27;20138;-72
2023/09/17 05:28:06;;;;;;;;;;;;;;;17.29;100.00;96424.34;5148090;27;19961;-80
2023/09/17 05:30:33;;;;;;;;;;;;;;;17.29;100.00;96419.03;5166886;27;19955;-80
2023/09/17 05:32:58;;;;;;;;;;;;;;;17.29;100.00;96425.13;5151616;27;19964;-80
2023/09/17 05:35:24;;;;;;;;;;;;;;;17.29;100.00;96426.97;5170208;27;20135;-80
2023/09/17 05:37:50;;;;;;;;;;;;;;;17.28;100.00;96425.38;5170597;27;19960;-80
2023/09/17 05:40:16;;;;;;;;;;;;;;;17.32;100.00;96426.44;5169900;27;19957;-80
2023/09/17 05:42:43;;;;;;;;;;;;;;;17.39;100.00;96429.66;5170305;27;20004;-75
2023/09/17 05:45:09;;;;;;;;;;;;;;;17.40;100.00;96420.63;5170329;27;19951;-72
2023/09/17 05:47:35;;;;;;;;;;;;;;;17.40;100.00;96423.28;5170494;27;20229;-71
2023/09/17 05:50:01;;;;;;;;;;;;;;;17.40;100.00;96425.94;5170140;27;19956;-72
2023/09/17 05:52:26;;;;;;;;;;;;;;;17.41;100.00;96425.69;5170168;27;19964;-72
2023/09/17 05:54:52;;;;;;;;;;;;;;;17.43;100.00;96430.75;5170337;27;19962;-73
2023/09/17 05:57:18;;;;;;;;;;;;;;;17.46;100.00;96430.19;5170303;27;19956;-72
2023/09/17 05:59:45;;;;;;;;;;;;;;;17.49;100.00;96428.88;5169653;27;19952;-72
2023/09/17 06:02:11;;;;;;;;;;;;;;;17.67;100.00;96427.59;5169740;27;19957;-71
2023/09/17 06:04:37;;;;;;;;;;;;;;;18.04;100.00;96422.88;5169657;27;20232;-70
2023/09/17 06:07:03;;;;;;;;;;;;;;;18.26;100.00;96416.47;5169971;27;20145;-69
2023/09/17 06:09:29;;;;;;;;;;;;;;;18.29;100.00;96423.91;5169524;27;20016;-69
2023/09/17 06:11:56;;;;;;;;;;;;;;;18.27;100.00;96420.72;5169677;27;19951;-70
2023/09/17 06:14:22;;;;;;;;;;;;;;;18.21;100.00;96421.81;5169686;27;19961;-70
2023/09/17 06:16:48;;;;;;;;;;;;;;;18.17;100.00;96439.31;5151014;27;20014;-70
2023/09/17 06:19:14;;;;;;;;;;;;;;;18.11;100.00;96427.13;5169576;27;20320;-70
2023/09/17 06:21:43;;;;;;;;;;;;;;;18.05;100.00;96437.72;5169370;27;19983;-72
2023/09/17 06:24:09;;;;;;;;;;;;;;;18.03;100.00;96436.38;5169364;27;19980;-73
2023/09/17 06:26:35;;;;;;;;;;;;;;;18.03;100.00;96433.75;5169157;27;19954;-73
2023/09/17 06:29:01;;;;;;;;;;;;;;;18.02;100.00;96434.81;5150488;27;19962;-73
2023/09/17 06:31:27;;;;;;;;;;;;;;;18.03;100.00;96433.75;5169136;27;19954;-73
2023/09/17 06:33:53;;;;;;;;;;;;;;;18.04;100.00;96438.00;5150767;27;19963;-75
2023/09/17 06:36:19;;;;;;;;;;;;;;;18.02;100.00;96429.50;5169114;27;20245;-72
2023/09/17 06:38:48;;;;;;;;;;;;;;;18.01;100.00;96430.56;5150304;27;19949;-81
2023/09/17 06:41:14;;;;;;;;;;;;;;;18.01;100.00;96434.00;5150027;27;19954;-75
2023/09/17 06:43:40;;;;;;;;;;;;;;;18.03;100.00;96433.75;5150498;27;19956;-75
2023/09/17 06:46:06;;;;;;;;;;;;;;;18.05;100.00;96431.63;5169166;27;19961;-75
2023/09/17 06:48:31;;;;;;;;;;;;;;;18.05;100.00;96432.41;5168998;27;19956;-75
2023/09/17 06:50:57;;;;;;;;;;;;;;;18.07;100.00;96428.69;5168545;27;19970;-75
2023/09/17 06:53:23;;;;;;;;;;;;;;;18.09;100.00;96434.53;5168456;27;19958;-75
2023/09/17 06:55:49;;;;;;;;;;;;;;;18.11;100.00;96440.38;5168547;27;19959;-75
2023/09/17 06:58:16;;;;;;;;;;;;;;;18.13;100.00;96441.69;5168368;27;19986;-70
2023/09/17 07:00:43;;;;;;;;;;;;;;;18.18;100.00;96435.59;5149945;27;19983;-81
2023/09/17 07:03:08;;;;;;;;;;;;;;;18.21;100.00;96435.06;5150172;27;20135;-81
2023/09/17 07:05:34;;;;;;;;;;;;;;;18.29;100.00;96431.06;5168538;27;19952;-81
2023/09/17 07:08:01;;;;;;;;;;;;;;;18.57;100.00;96437.69;5149976;27;20031;-80
2023/09/17 07:10:26;;;;;;;;;;;;;;;18.90;100.00;96427.50;5150110;27;19957;-80
2023/09/17 07:12:52;;;;;;;;;;;;;;;19.18;100.00;96432.19;5168646;27;19969;-81
2023/09/17 07:15:20;;;;;;;;;;;;;;;19.34;100.00;96429.44;5168643;27;19955;-79
2023/09/17 07:17:46;;;;;;;;;;;;;;;19.35;100.00;96429.16;5168448;27;19954;-78
2023/09/17 07:20:13;;;;;;;;;;;;;;;19.36;100.00;96437.94;5167944;27;19941;-79
2023/09/17 07:22:40;;;;;;;;;;;;;;;19.42;100.00;96437.66;5168610;27;20131;-79
2023/09/17 07:25:05;;;;;;;;;;;;;;;19.62;100.00;96431.41;5168312;27;19972;-78
2023/09/17 07:27:32;;;;;;;;;;;;;;;19.76;100.00;96436.13;5167735;27;20243;-78
2023/09/17 07:29:58;;;;;;;;;;;;;;;19.92;100.00;96440.28;5167904;27;19954;-79
2023/09/17 07:32:27;;;;;;;;;;;;;;;19.95;100.00;96426.41;5167950;27;19963;-79
2023/09/17 07:34:53;;;;;;;;;;;;;;;19.93;100.00;96430.41;5149297;27;19956;-79
2023/09/17 07:37:20;;;;;;;;;;;;;;;19.96;100.00;96422.66;5168091;27;19986;-71
2023/09/17 07:39:47;;;;;;;;;;;;;;;19.97;100.00;96428.78;5149461;27;19976;-71
2023/09/17 07:42:13;;;;;;;;;;;;;;;19.99;100.00;96439.94;5167947;27;20146;-71
2023/09/17 07:44:39;;;;;;;;;;;;;;;19.97;100.00;96445.56;5167848;27;19958;-72
2023/09/17 07:47:06;;;;;;;;;;;;;;;19.92;100.00;96444.81;5167340;27;19947;-71
2023/09/17 07:49:32;;;;;;;;;;;;;;;19.88;100.00;96447.22;5167840;27;19963;-71
2023/09/17 07:51:58;;;;;;;;;;;;;;;19.83;100.00;96441.94;5168079;27;19962;-70
2023/09/17 07:54:25;;;;;;;;;;;;;;;19.78;100.00;96450.75;5166997;27;20005;-76
2023/09/17 07:56:51;;;;;;;;;;;;;;;19.76;100.00;96447.59;5167507;27;19951;-72
2023/09/17 07:59:17;;;;;;;;;;;;;;;19.74;100.00;96455.03;5167341;27;19953;-72
2023/09/17 08:01:44;;;;;;;;;;;;;;;19.74;100.00;96456.88;5167376;27;19953;-72
2023/09/17 08:04:11;;;;;;;;;;;;;;;19.74;100.00;96456.88;5166621;27;20464;-72
2023/09/17 08:06:37;;;;;;;;;;;;;;;19.79;100.00;96456.88;5148888;27;19990;-72
2023/09/17 08:09:06;;;;;;;;;;;;;;;19.83;100.00;96457.91;5167549;27;20009;-72
2023/09/17 08:11:31;;;;;;;;;;;;;;;19.87;100.00;96464.28;5167432;27;19950;-72
2023/09/17 08:13:57;;;;;;;;;;;;;;;19.92;100.00;96456.25;5148682;27;19991;-80
2023/09/17 08:16:24;;;;;;;;;;;;;;;19.95;100.00;96461.03;5131128;27;19951;-80
2023/09/17 08:18:50;;;;;;;;;;;;;;;20.00;100.00;96466.31;5167365;27;19958;-81
2023/09/17 08:21:16;;;;;;;;;;;;;;;20.06;100.00;96464.41;5166803;27;19960;-81
2023/09/17 08:24:02;;;;;;;;;;;;;;;20.12;100.00;96457.19;5167237;27;20115;-80
2023/09/17 08:26:49;;;;;;;;;;;;;;;20.18;100.00;96453.38;5167119;27;19965;-81
2023/09/17 08:29:34;;;;;;;;;;;;;;;20.19;100.00;96449.66;5166356;27;19958;-75
2023/09/17 08:32:19;;;;;;;;;;;;;;;20.18;100.00;96446.22;5167056;27;19962;-82
2023/09/17 08:35:06;;;;;;;;;;;;;;;20.31;100.00;96447.41;5151148;27;19966;-82
2023/09/17 08:37:33;;;;;;;;;;;;;;;20.60;100.00;96441.31;5166678;27;19952;-82
2023/09/17 08:39:59;;;;;;;;;;;;;;;20.92;100.00;96450.59;5166648;27;19964;-81
2023/09/17 08:42:27;;;;;;;;;;;;;;;21.17;100.00;96426.28;5148183;27;19951;-81
2023/09/17 08:44:58;;;;;;;;;;;;;;;21.22;100.00;96430.75;5166672;27;19954;-81
2023/09/17 08:47:24;;;;;;;;;;;;;;;21.36;100.00;96438.84;5166959;27;19957;-72
2023/09/17 08:49:50;;;;;;;;;;;;;;;21.46;100.00;96422.72;5148241;27;19974;-73
2023/09/17 08:52:17;;;;;;;;;;;;;;;21.60;100.00;96422.78;5166085;27;19966;-72
2023/09/17 08:54:44;;;;;;;;;;;;;;;21.79;100.00;96409.44;5166579;27;19975;-73
2023/09/17 08:57:12;;;;;;;;;;;;;;;21.91;100.00;96414.34;5148198;27;19966;-72
2023/09/17 08:59:41;;;;;;;;;;;;;;;21.98;100.00;96410.19;5166070;27;19965;-73
2023/09/17 09:02:22;;;;;;;;;;;;;;;22.07;100.00;96397.78;5166803;27;19955;-72
2023/09/17 09:04:50;;;;;;;;;;;;;;;22.16;100.00;96405.13;5166165;27;19960;-73
2023/09/17 09:07:22;;;;;;;;;;;;;;;22.21;98.05;96400.47;5166007;27;19953;-70
2023/09/17 09:09:51;;;;;;;;;;;;;;;22.26;97.84;96397.75;5166429;27;20241;-72
2023/09/17 09:12:17;;;;;;;;;;;;;;;22.34;100.00;96408.81;5166478;27;19962;-72
2023/09/17 09:14:44;;;;;;;;;;;;;;;22.41;100.00;96415.38;5147705;27;20142;-72
2023/09/17 09:17:11;;;;;;;;;;;;;;;22.50;98.69;96400.25;5166472;27;20104;-73
2023/09/17 09:19:37;;;;;;;;;;;;;;;22.57;97.33;96402.50;5166229;27;19964;-73
2023/09/17 09:22:03;;;;;;;;;;;;;;;22.67;98.89;96410.34;5166645;27;19961;-72
2023/09/17 09:24:29;;;;;;;;;;;;;;;22.75;94.67;96384.81;5166138;27;19963;-80
2023/09/17 09:26:58;;;;;;;;;;;;;;;22.84;98.86;96406.28;5165891;27;19949;-76
2023/09/17 09:29:24;;;;;;;;;;;;;;;22.95;100.00;96407.69;5166074;27;19963;-77
2023/09/17 09:31:50;;;;;;;;;;;;;;;23.02;97.54;96396.63;5166140;27;19991;-77
2023/09/17 09:34:17;;;;;;;;;;;;;;;23.07;96.13;96380.44;5166155;27;19969;-78
2023/09/17 09:36:44;;;;;;;;;;;;;;;23.05;98.07;96396.78;5166222;27;19960;-77
2023/09/17 09:39:13;;;;;;;;;;;;;;;23.07;96.36;96386.59;5166219;27;20133;-76
2023/09/17 09:41:40;;;;;;;;;;;;;;;23.13;93.29;96359.75;5166307;27;19986;-77
2023/09/17 09:44:07;;;;;;;;;;;;;;;23.21;95.76;96377.75;5166276;27;20117;-72
2023/09/17 09:46:33;;;;;;;;;;;;;;;23.25;92.68;96363.47;5166265;27;19951;-72
2023/09/17 09:49:00;;;;;;;;;;;;;;;23.27;94.27;96353.28;5166472;27;20312;-72
2023/09/17 09:51:27;;;;;;;;;;;;;;;23.30;97.87;96374.06;5165649;27;19957;-72
2023/09/17 09:53:54;;;;;;;;;;;;;;;23.37;90.31;96335.38;5165766;27;19980;-72
2023/09/17 09:56:21;;;;;;;;;;;;;;;23.42;91.39;96328.03;5166109;27;19959;-73
2023/09/17 09:58:48;;;;;;;;;;;;;;;23.51;93.51;96358.34;5165909;27;19956;-72
2023/09/17 10:01:15;;;;;;;;;;;;;;;23.58;87.77;96317.78;5166155;27;19957;-73
2023/09/17 10:03:41;;;;;;;;;;;;;;;23.64;89.82;96329.13;5166062;27;19956;-80
2023/09/17 10:06:07;;;;;;;;;;;;;;;23.71;89.76;96316.91;5165920;27;19958;-79
2023/09/17 10:08:34;;;;;;;;;;;;;;;23.84;87.69;96320.63;5166012;27;20136;-79
2023/09/17 10:11:00;;;;;;;;;;;;;;;23.98;91.66;96331.28;5165946;27;19950;-80
2023/09/17 10:13:25;;;;;;;;;;;;;;;24.10;91.70;96330.69;5165384;27;19950;-79
2023/09/17 10:15:51;;;;;;;;;;;;;;;24.21;88.42;96305.25;5166196;27;20170;-79
2023/09/17 10:18:18;;;;;;;;;;;;;;;24.33;89.24;96315.34;5169536;27;20160;-79
2023/09/17 10:20:45;;;;;;;;;;;;;;;24.40;83.33;96275.50;5169908;27;20133;-72
2023/09/17 10:23:12;;;;;;;;;;;;;;;24.47;87.06;96302.63;5169741;27;19946;-78
2023/09/17 10:25:39;;;;;;;;;;;;;;;24.51;86.54;96300.94;5169279;27;19956;-79
2023/09/17 10:28:05;;;;;;;;;;;;;;;24.59;87.71;96312.00;5169506;27;20105;-79
2023/09/17 10:30:32;;;;;;;;;;;;;;;24.70;85.39;96291.84;5169515;27;19952;-79
2023/09/17 10:32:59;;;;;;;;;;;;;;;24.81;83.72;96282.38;5169303;27;19945;-79
2023/09/17 10:35:26;;;;;;;;;;;;;;;24.94;82.42;96277.19;5169227;27;19959;-78
2023/09/17 10:37:54;;;;;;;;;;;;;;;25.05;80.15;96268.53;5169314;27;19976;-80
2023/09/17 10:40:20;;;;;;;;;;;;;;;25.17;81.56;96321.56;5150528;27;19968;-77
2023/09/17 10:42:46;;;;;;;;;;;;;;;25.29;82.77;96332.50;5168752;27;19974;-78
2023/09/17 10:45:12;;;;;;;;;;;;;;;25.41;81.30;96326.50;5169165;27;19959;-77
2023/09/17 10:47:41;;;;;;;;;;;;;;;25.54;80.05;96318.59;5168713;27;20280;-78
2023/09/17 10:50:08;;;;;;;;;;;;;;;25.68;80.47;96316.50;5169169;27;19963;-78
2023/09/17 10:52:35;;;;;;;;;;;;;;;25.85;79.93;96326.44;5168743;27;19948;-78
2023/09/17 10:55:02;;;;;;;;;;;;;;;26.01;80.81;96318.69;5150073;27;19995;-78
2023/09/17 10:57:33;;;;;;;;;;;;;;;26.12;73.77;96299.22;5168752;27;19957;-78
2023/09/17 11:00:00;;;;;;;;;;;;;;;26.23;77.85;96313.09;5169021;27;19959;-71
2023/09/17 11:02:28;;;;;;;;;;;;;;;26.40;76.37;96303.38;5168195;27;19950;-71
2023/09/17 11:04:55;;;;;;;;;;;;;;;26.56;76.46;96304.38;5168840;27;19959;-71
2023/09/17 11:07:21;;;;;;;;;;;;;;;26.73;73.47;96309.72;5168672;27;19956;-71
2023/09/17 11:09:48;;;;;;;;;;;;;;;26.80;70.83;96303.81;5168722;27;19989;-71
2023/09/17 11:12:14;;;;;;;;;;;;;;;26.95;74.26;96312.44;5168378;27;19954;-71
2023/09/17 11:14:43;;;;;;;;;;;;;;;27.10;74.04;96311.84;5168174;27;19965;-70
2023/09/17 11:17:09;;;;;;;;;;;;;;;27.22;68.60;96295.78;5168197;27;19974;-79
2023/09/17 11:19:35;;;;;;;;;;;;;;;27.27;70.38;96313.63;5168243;27;19959;-79
2023/09/17 11:22:01;;;;;;;;;;;;;;;27.30;71.80;96324.56;5167866;27;19958;-79
2023/09/17 11:24:27;;;;;;;;;;;;;;;27.39;69.81;96321.78;5168429;27;19966;-78
2023/09/17 11:26:56;;;;;;;;;;;;;;;27.46;73.74;96322.03;5168506;27;19948;-79
2023/09/17 11:29:37;;;;;;;;;;;;;;;27.58;70.19;96315.91;5168113;27;19956;-79
2023/09/17 11:32:04;;;;;;;;;;;;;;;27.64;67.54;96309.19;5168250;27;19958;-79
2023/09/17 11:34:30;;;;;;;;;;;;;;;27.78;73.11;96319.66;5167673;27;19970;-81
2023/09/17 11:36:57;;;;;;;;;;;;;;;27.89;66.10;96304.69;5168197;27;20022;-71
2023/09/17 11:39:23;;;;;;;;;;;;;;;27.99;64.54;96298.09;5167729;27;19953;-71
2023/09/17 11:42:00;;;;;;;;;;;;;;;27.98;66.64;96304.59;5167537;27;19958;-71
2023/09/17 11:44:26;;;;;;;;;;;;;;;27.96;67.85;96306.84;5168205;27;19959;-71
2023/09/17 11:46:51;;;;;;;;;;;;;;;27.96;64.98;96297.97;5167743;27;19954;-71
2023/09/17 11:49:18;;;;;;;;;;;;;;;27.96;66.90;96303.38;5167712;27;19960;-71
2023/09/17 11:51:45;;;;;;;;;;;;;;;27.99;63.98;96294.59;5167779;27;19952;-79
2023/09/17 11:54:19;;;;;;;;;;;;;;;28.04;64.68;96295.19;5167807;27;20138;-79
2023/09/17 11:56:46;;;;;;;;;;;;;;;28.13;66.96;96293.16;5167762;27;20250;-78
2023/09/17 11:59:15;;;;;;;;;;;;;;;28.12;60.45;96288.13;5167943;27;19946;-79
2023/09/17 12:01:43;;;;;;;;;;;;;;;28.15;67.30;96295.53;5167570;27;19958;-79
2023/09/17 12:04:10;;;;;;;;;;;;;;;28.26;63.07;96291.25;5149271;27;19959;-79
2023/09/17 12:06:38;;;;;;;;;;;;;;;28.37;64.64;96286.22;5167590;27;19953;-78
2023/09/17 12:09:10;;;;;;;;;;;;;;;28.48;62.28;96281.94;5167396;27;19959;-79
2023/09/17 12:11:36;;;;;;;;;;;;;;;28.57;65.21;96286.47;5167297;27;19961;-72
2023/09/17 12:14:06;;;;;;;;;;;;;;;28.66;61.19;96277.13;5148329;27;19969;-70
2023/09/17 12:16:32;;;;;;;;;;;;;;;28.71;60.58;96276.91;5167393;27;20092;-70
2023/09/17 12:18:58;;;;;;;;;;;;;;;28.73;59.83;96274.66;5167290;27;19955;-70
2023/09/17 12:21:25;;;;;;;;;;;;;;;28.76;64.62;96283.97;5167254;27;19949;-70
2023/09/17 12:26:24;;;;;;;;;;;;;;;28.86;62.61;96275.41;5167431;27;20164;-71
2023/09/17 12:28:50;;;;;;;;;;;;;;;28.92;65.43;96281.38;5167403;27;19948;-77
2023/09/17 12:31:16;;;;;;;;;;;;;;;28.98;62.00;96276.50;5166785;27;19965;-82
2023/09/17 12:33:43;;;;;;;;;;;;;;;29.07;64.15;96277.94;5166673;27;19960;-83
2023/09/17 12:36:10;;;;;;;;;;;;;;;29.08;60.99;96266.03;5166688;27;19972;-82
2023/09/17 12:38:36;;;;;;;;;;;;;;;29.08;60.19;96263.34;5166939;27;19953;-82
2023/09/17 12:41:02;;;;;;;;;;;;;;;29.11;61.04;96264.59;5166277;27;20003;-83